createdAt,value
2018-07-25T00:00:28.940Z,8.27
2018-07-25T00:02:57.900Z,7.03
2018-07-25T00:05:26.717Z,8.87
2018-07-25T00:07:55.379Z,8.13
2018-07-25T00:10:28.488Z,8.37
2018-07-25T00:12:57.292Z,8.17
2018-07-25T00:15:26.262Z,7.70
2018-07-25T00:17:55.052Z,9.20
2018-07-25T00:20:23.905Z,9.17
2018-07-25T00:22:52.658Z,7.90
2018-07-25T00:25:23.638Z,6.93
2018-07-25T00:27:52.485Z,8.50
2018-07-25T00:30:21.485Z,9.23
2018-07-25T00:32:50.497Z,7.33
2018-07-25T00:35:19.554Z,8.80
2018-07-25T00:37:51.267Z,8.07
2018-07-25T00:40:22.922Z,8.23
2018-07-25T00:42:51.854Z,8.83
2018-07-25T00:45:20.733Z,8.13
2018-07-25T00:47:49.667Z,9.37
2018-07-25T00:50:20.136Z,9.97
2018-07-25T00:52:49.048Z,8.37
2018-07-25T00:55:17.951Z,8.63
2018-07-25T00:57:46.920Z,8.73
2018-07-25T01:00:15.624Z,9.47
2018-07-25T01:02:44.161Z,9.67
2018-07-25T01:05:12.983Z,10.60
2018-07-25T01:07:41.632Z,9.20
2018-07-25T01:10:10.207Z,9.00
2018-07-25T01:12:39.229Z,9.47
2018-07-25T01:15:09.080Z,9.20
2018-07-25T01:17:38.183Z,9.30
2018-07-25T01:20:07.727Z,8.30
2018-07-25T01:22:36.583Z,10.07
2018-07-25T01:25:05.646Z,10.13
2018-07-25T01:27:34.340Z,8.47
2018-07-25T01:30:03.152Z,7.77
2018-07-25T01:32:32.092Z,8.60
2018-07-25T01:35:00.751Z,9.50
2018-07-25T01:37:29.367Z,8.10
2018-07-25T01:39:58.366Z,7.63
2018-07-25T01:42:27.041Z,8.37
2018-07-25T01:44:55.740Z,7.20
2018-07-25T01:47:24.305Z,9.23
2018-07-25T01:49:53.099Z,8.53
2018-07-25T01:52:21.684Z,8.60
2018-07-25T01:54:50.345Z,8.70
2018-07-25T01:57:18.991Z,8.80
2018-07-25T01:59:47.619Z,8.47
2018-07-25T02:02:19.934Z,7.83
2018-07-25T02:04:48.614Z,9.57
2018-07-25T02:07:17.180Z,9.30
2018-07-25T02:09:45.860Z,9.10
2018-07-25T02:12:14.496Z,8.80
2018-07-25T02:14:43.082Z,8.17
2018-07-25T02:17:11.699Z,7.60
2018-07-25T02:19:40.392Z,9.03
2018-07-25T02:22:09.145Z,8.43
2018-07-25T02:24:37.758Z,8.70
2018-07-25T02:27:06.555Z,8.13
2018-07-25T02:29:35.312Z,9.00
2018-07-25T02:32:07.736Z,8.90
2018-07-25T02:34:36.473Z,8.57
2018-07-25T02:37:05.175Z,9.20
2018-07-25T02:39:33.849Z,8.73
2018-07-25T02:42:02.433Z,10.13
2018-07-25T02:44:31.213Z,8.30
2018-07-25T02:46:59.942Z,7.17
2018-07-25T02:49:28.575Z,9.50
2018-07-25T02:52:01.006Z,8.50
2018-07-25T02:54:29.741Z,7.90
2018-07-25T02:56:58.602Z,7.97
2018-07-25T02:59:27.165Z,9.40
2018-07-25T03:01:55.804Z,10.30
2018-07-25T03:04:24.439Z,8.33
2018-07-25T03:06:53.038Z,7.97
2018-07-25T03:09:21.647Z,8.87
2018-07-25T03:11:50.296Z,9.13
2018-07-25T03:14:18.995Z,9.30
2018-07-25T03:16:47.592Z,9.60
2018-07-25T03:19:16.271Z,9.20
2018-07-25T03:21:45.919Z,11.70
2018-07-25T03:24:14.559Z,10.00
2018-07-25T03:26:43.155Z,9.87
2018-07-25T03:29:11.727Z,10.80
2018-07-25T03:31:40.454Z,9.70
2018-07-25T03:34:09.079Z,10.07
2018-07-25T03:36:37.614Z,9.13
2018-07-25T03:39:07.489Z,11.07
2018-07-25T03:41:36.223Z,10.43
2018-07-25T03:44:04.911Z,10.43
2018-07-25T03:46:33.654Z,10.87
2018-07-25T03:49:02.165Z,10.40
2018-07-25T03:51:30.867Z,10.40
2018-07-25T03:53:59.480Z,8.80
2018-07-25T03:56:28.351Z,12.40
2018-07-25T03:58:56.978Z,11.80
2018-07-25T04:01:25.600Z,11.53
2018-07-25T04:03:54.302Z,10.00
2018-07-25T04:06:22.920Z,9.20
2018-07-25T04:08:51.544Z,11.37
2018-07-25T04:11:20.271Z,10.43
2018-07-25T04:13:48.891Z,11.40
2018-07-25T04:16:17.615Z,13.53
2018-07-25T04:18:46.127Z,11.13
2018-07-25T04:21:14.905Z,9.40
2018-07-25T04:23:43.524Z,11.40
2018-07-25T04:26:12.309Z,12.97
2018-07-25T04:28:40.965Z,12.67
2018-07-25T04:31:10.515Z,11.33
2018-07-25T04:33:39.233Z,11.90
2018-07-25T04:36:07.819Z,11.30
2018-07-25T04:38:36.398Z,11.53
2018-07-25T04:41:05.133Z,9.77
2018-07-25T04:43:33.903Z,11.20
2018-07-25T04:46:02.636Z,10.60
2018-07-25T04:48:31.234Z,10.87
2018-07-25T04:50:59.896Z,11.73
2018-07-25T04:53:28.661Z,13.20
2018-07-25T04:55:57.385Z,12.40
2018-07-25T04:58:26.943Z,12.80
2018-07-25T05:00:55.693Z,10.97
2018-07-25T05:03:24.364Z,12.63
2018-07-25T05:05:53.114Z,13.83
2018-07-25T05:08:21.943Z,12.80
2018-07-25T05:10:50.806Z,9.90
2018-07-25T05:13:19.460Z,10.87
2018-07-25T05:15:48.179Z,12.00
2018-07-25T05:18:16.912Z,12.17
2018-07-25T05:20:45.713Z,12.83
2018-07-25T05:23:14.515Z,11.20
2018-07-25T05:25:43.212Z,12.30
2018-07-25T05:28:11.926Z,11.30
2018-07-25T05:30:40.619Z,12.83
2018-07-25T05:33:09.340Z,12.33
2018-07-25T05:35:38.078Z,13.50
2018-07-25T05:38:06.807Z,12.47
2018-07-25T05:40:35.387Z,12.33
2018-07-25T05:43:04.205Z,13.67
2018-07-25T05:45:32.931Z,13.03
2018-07-25T05:48:01.643Z,12.70
2018-07-25T05:50:30.369Z,13.60
2018-07-25T05:52:59.196Z,14.13
2018-07-25T05:55:28.073Z,12.93
2018-07-25T05:57:56.899Z,13.80
2018-07-25T06:00:25.566Z,14.20
2018-07-25T06:02:54.260Z,14.67
2018-07-25T06:05:22.906Z,14.40
2018-07-25T06:07:51.563Z,14.97
2018-07-25T06:10:20.181Z,14.70
2018-07-25T06:12:48.895Z,13.87
2018-07-25T06:15:17.697Z,14.70
2018-07-25T06:17:46.682Z,13.40
2018-07-25T06:20:15.757Z,13.67
2018-07-25T06:22:46.093Z,13.10
2018-07-25T06:25:15.227Z,14.93
2018-07-25T06:27:44.073Z,14.47
2018-07-25T06:30:12.831Z,14.93
2018-07-25T06:32:55.727Z,14.80
2018-07-25T06:35:24.453Z,16.47
2018-07-25T06:37:54.069Z,13.37
2018-07-25T06:40:22.780Z,12.70
2018-07-25T06:42:52.494Z,14.80
2018-07-25T06:45:21.274Z,12.10
2018-07-25T06:47:50.059Z,13.90
2018-07-25T06:50:19.632Z,12.77
2018-07-25T06:52:49.573Z,13.73
2018-07-25T06:55:18.246Z,14.00
2018-07-25T06:57:47.315Z,13.57
2018-07-25T07:00:16.073Z,14.33
2018-07-25T07:02:52.686Z,14.47
2018-07-25T07:05:21.466Z,13.50
2018-07-25T07:07:50.513Z,13.63
2018-07-25T07:10:19.184Z,14.23
2018-07-25T07:12:47.927Z,11.90
2018-07-25T07:15:16.552Z,13.93
2018-07-25T07:17:45.250Z,13.20
2018-07-25T07:20:13.888Z,13.10
2018-07-25T07:22:42.537Z,14.60
2018-07-25T07:25:18.925Z,14.50
2018-07-25T07:27:47.728Z,12.50
2018-07-25T07:30:16.428Z,13.20
2018-07-25T07:32:45.594Z,10.53
2018-07-25T07:35:18.058Z,10.07
2018-07-25T07:37:47.800Z,11.13
2018-07-25T07:40:16.456Z,11.00
2018-07-25T07:42:45.094Z,11.70
2018-07-25T07:45:30.738Z,10.70
2018-07-25T07:47:59.384Z,10.80
2018-07-25T07:50:27.999Z,9.70
2018-07-25T07:52:56.819Z,9.07
2018-07-25T07:55:28.736Z,9.50
2018-07-25T07:57:57.485Z,9.97
2018-07-25T08:00:26.376Z,9.80
2018-07-25T08:02:55.230Z,9.90
2018-07-25T08:05:25.027Z,9.83
2018-07-25T08:07:53.757Z,8.97
2018-07-25T08:10:22.490Z,9.10
2018-07-25T08:12:51.259Z,9.20
2018-07-25T08:15:20.290Z,8.50
2018-07-25T08:17:49.002Z,9.00
2018-07-25T08:20:17.675Z,8.10
2018-07-25T08:22:46.316Z,8.90
2018-07-25T08:25:28.695Z,7.10
2018-07-25T08:27:57.470Z,7.40
2018-07-25T08:30:26.121Z,7.43
2018-07-25T08:32:54.777Z,11.23
2018-07-25T08:35:31.853Z,7.03
2018-07-25T08:38:00.597Z,8.23
2018-07-25T08:40:29.299Z,8.57
2018-07-25T08:42:58.571Z,7.80
2018-07-25T08:45:27.271Z,8.07
2018-07-25T08:47:55.877Z,7.03
2018-07-25T08:50:24.578Z,6.73
2018-07-25T08:52:53.412Z,6.43
2018-07-25T08:55:22.025Z,6.20
2018-07-25T08:57:50.779Z,7.13
2018-07-25T09:00:19.524Z,6.87
2018-07-25T09:02:48.221Z,7.80
2018-07-25T09:05:16.831Z,7.20
2018-07-25T09:07:45.615Z,8.30
2018-07-25T09:10:14.286Z,6.40
2018-07-25T09:12:43.080Z,5.37
2018-07-25T09:15:11.936Z,5.53
2018-07-25T09:17:40.702Z,6.70
2018-07-25T09:20:09.481Z,6.63
2018-07-25T09:22:38.218Z,6.27
2018-07-25T09:25:07.055Z,6.20
2018-07-25T09:27:35.809Z,6.73
2018-07-25T09:30:05.793Z,6.67
2018-07-25T09:32:34.435Z,6.10
2018-07-25T09:35:03.325Z,6.50
2018-07-25T09:37:31.915Z,6.33
2018-07-25T09:40:00.616Z,6.57
2018-07-25T09:42:30.360Z,5.77
2018-07-25T09:44:59.112Z,5.70
2018-07-25T09:47:27.769Z,5.20
2018-07-25T09:49:56.421Z,6.43
2018-07-25T09:52:25.145Z,5.73
2018-07-25T09:54:53.909Z,6.97
2018-07-25T09:57:22.549Z,7.60
2018-07-25T09:59:51.411Z,6.20
2018-07-25T10:02:20.154Z,5.80
2018-07-25T10:04:56.062Z,5.40
2018-07-25T10:07:24.853Z,6.20
2018-07-25T10:09:53.657Z,6.17
2018-07-25T10:12:23.228Z,7.73
2018-07-25T10:14:52.049Z,5.37
2018-07-25T10:17:20.631Z,6.60
2018-07-25T10:19:49.281Z,6.83
2018-07-25T10:22:17.851Z,7.03
2018-07-25T10:24:49.989Z,5.53
2018-07-25T10:27:18.749Z,6.30
2018-07-25T10:29:47.456Z,6.97
2018-07-25T10:32:16.159Z,6.37
2018-07-25T10:34:44.959Z,6.03
2018-07-25T10:37:13.497Z,7.23
2018-07-25T10:39:42.216Z,6.00
2018-07-25T10:42:11.201Z,7.03
2018-07-25T10:44:39.916Z,6.47
2018-07-25T10:47:08.582Z,6.93
2018-07-25T10:49:37.356Z,6.27
2018-07-25T10:52:05.957Z,6.90
2018-07-25T10:54:34.851Z,6.60
2018-07-25T10:57:03.515Z,6.63
2018-07-25T10:59:32.259Z,6.50
2018-07-25T11:02:03.241Z,7.10
2018-07-25T11:04:31.856Z,6.20
2018-07-25T11:07:00.406Z,6.60
2018-07-25T11:09:29.069Z,6.87
2018-07-25T11:11:57.695Z,7.20
2018-07-25T11:14:27.213Z,6.23
2018-07-25T11:16:55.864Z,6.67
2018-07-25T11:19:24.644Z,6.27
2018-07-25T11:21:53.285Z,6.40
2018-07-25T11:24:21.877Z,6.90
2018-07-25T11:26:50.480Z,6.03
2018-07-25T11:29:19.160Z,6.03
2018-07-25T11:32:00.827Z,6.27
2018-07-25T11:34:30.447Z,6.70
2018-07-25T11:36:59.126Z,5.30
2018-07-25T11:39:27.761Z,6.07
2018-07-25T11:42:07.858Z,6.97
2018-07-25T11:44:36.532Z,6.73
2018-07-25T11:47:12.200Z,7.80
2018-07-25T11:49:40.850Z,7.80
2018-07-25T11:52:09.490Z,6.00
2018-07-25T11:54:38.855Z,6.30
2018-07-25T11:57:07.566Z,7.07
2018-07-25T11:59:36.306Z,7.00
2018-07-25T12:02:04.930Z,7.03
2018-07-25T12:04:33.546Z,7.17
2018-07-25T12:09:31.203Z,6.17
2018-07-25T12:11:59.924Z,6.03
2018-07-25T12:14:28.602Z,6.03
2018-07-25T12:16:57.346Z,6.70
2018-07-25T12:19:25.908Z,6.23
2018-07-25T12:24:35.576Z,6.93
2018-07-25T12:27:04.273Z,7.40
2018-07-25T12:29:32.934Z,6.57
2018-07-25T12:32:08.719Z,5.93
2018-07-25T12:34:37.374Z,6.50
2018-07-25T12:37:13.809Z,5.27
2018-07-25T12:39:42.578Z,5.63
2018-07-25T12:42:11.496Z,7.20
2018-07-25T12:44:40.195Z,5.97
2018-07-25T12:47:10.098Z,5.97
2018-07-25T12:49:38.734Z,6.33
2018-07-25T12:52:07.558Z,6.27
2018-07-25T12:54:36.251Z,5.57
2018-07-25T12:57:05.163Z,5.93
2018-07-25T12:59:33.807Z,6.80
2018-07-25T13:02:02.621Z,6.50
2018-07-25T13:04:31.241Z,6.10
2018-07-25T13:06:59.997Z,8.07
2018-07-25T13:09:28.708Z,6.73
2018-07-25T13:11:57.344Z,7.87
2018-07-25T13:14:25.923Z,6.53
2018-07-25T13:16:54.763Z,7.20
2018-07-25T13:19:23.409Z,6.73
2018-07-25T13:21:52.210Z,6.37
2018-07-25T13:24:20.893Z,6.80
2018-07-25T13:27:12.595Z,6.73
2018-07-25T13:29:41.395Z,5.70
2018-07-25T13:32:10.113Z,6.13
2018-07-25T13:34:38.778Z,6.17
2018-07-25T13:37:08.131Z,6.20
2018-07-25T13:39:36.715Z,5.60
2018-07-25T13:42:05.425Z,7.20
2018-07-25T13:44:34.076Z,6.37
2018-07-25T13:47:02.842Z,5.83
2018-07-25T13:49:31.506Z,6.20
2018-07-25T13:52:00.427Z,6.60
2018-07-25T13:54:28.995Z,7.73
2018-07-25T13:56:57.787Z,6.53
2018-07-25T13:59:26.411Z,6.80
2018-07-25T14:01:55.131Z,6.62
2018-07-25T14:04:23.766Z,7.15
2018-07-25T14:06:53.536Z,6.37
2018-07-25T14:09:22.107Z,6.50
2018-07-25T14:11:50.910Z,7.12
2018-07-25T14:14:19.765Z,7.65
2018-07-25T14:16:49.581Z,6.65
2018-07-25T14:19:23.239Z,8.23
2018-07-25T14:21:51.933Z,6.67
2018-07-25T14:24:20.634Z,6.60
2018-07-25T14:26:49.321Z,5.83
2018-07-25T14:29:18.065Z,6.28
2018-07-25T14:31:46.697Z,6.72
2018-07-25T14:34:15.363Z,6.93
2018-07-25T14:36:44.067Z,6.70
2018-07-25T14:39:13.021Z,6.80
2018-07-25T14:41:42.161Z,7.20
2018-07-25T14:44:11.328Z,7.93
2018-07-25T14:46:39.965Z,7.80
2018-07-25T14:49:08.648Z,7.40
2018-07-25T14:51:37.513Z,7.20
2018-07-25T14:54:06.210Z,7.07
2018-07-25T14:56:34.899Z,5.67
2018-07-25T14:59:04.715Z,6.37
2018-07-25T15:01:33.521Z,6.60
2018-07-25T15:04:02.184Z,7.37
2018-07-25T15:06:30.823Z,6.60
2018-07-25T15:08:59.556Z,7.57
2018-07-25T15:11:29.928Z,7.00
2018-07-25T15:14:09.710Z,6.17
2018-07-25T15:16:52.669Z,7.57
2018-07-25T15:19:22.529Z,6.73
2018-07-25T15:21:51.263Z,6.13
2018-07-25T15:24:19.944Z,6.30
2018-07-25T15:26:48.752Z,6.27
2018-07-25T15:29:17.524Z,6.33
2018-07-25T15:34:15.022Z,5.90
2018-07-25T15:36:49.088Z,6.10
2018-07-25T15:39:23.834Z,6.27
2018-07-25T15:41:53.279Z,7.60
2018-07-25T15:44:22.986Z,5.73
2018-07-25T15:46:51.754Z,6.13
2018-07-25T15:49:20.581Z,5.87
2018-07-25T15:51:49.604Z,6.13
2018-07-25T15:54:18.426Z,6.30
2018-07-25T15:56:47.197Z,6.53
2018-07-25T15:59:15.927Z,6.37
2018-07-25T16:01:44.628Z,5.60
2018-07-25T16:04:13.285Z,5.23
2018-07-25T16:06:42.094Z,6.33
2018-07-25T16:09:12.476Z,5.47
2018-07-25T16:11:41.778Z,5.53
2018-07-25T16:14:10.373Z,6.00
2018-07-25T16:16:47.652Z,5.90
2018-07-25T16:19:16.586Z,5.27
2018-07-25T16:21:45.302Z,6.80
2018-07-25T16:24:14.114Z,7.13
2018-07-25T16:26:42.892Z,7.03
2018-07-25T16:29:12.510Z,6.20
2018-07-25T16:31:41.521Z,6.37
2018-07-25T16:34:10.218Z,6.47
2018-07-25T16:36:38.999Z,6.00
2018-07-25T16:39:10.676Z,5.23
2018-07-25T16:41:39.430Z,6.90
2018-07-25T16:44:08.140Z,7.07
2018-07-25T16:46:36.907Z,5.70
2018-07-25T16:49:05.858Z,6.37
2018-07-25T16:51:34.974Z,7.30
2018-07-25T16:54:03.882Z,6.23
2018-07-25T16:56:32.682Z,6.50
2018-07-25T16:59:01.353Z,6.40
2018-07-25T17:01:30.063Z,6.90
2018-07-25T17:03:58.890Z,7.90
2018-07-25T17:06:27.641Z,5.80
2018-07-25T17:08:56.387Z,6.73
2018-07-25T17:11:25.190Z,6.53
2018-07-25T17:13:53.802Z,7.30
2018-07-25T17:16:22.554Z,6.00
2018-07-25T17:18:51.299Z,5.60
2018-07-25T17:21:20.051Z,5.97
2018-07-25T17:23:48.844Z,6.23
2018-07-25T17:26:17.463Z,6.97
2018-07-25T17:28:46.165Z,5.10
2018-07-25T17:31:14.921Z,6.40
2018-07-25T17:33:43.706Z,5.57
2018-07-25T17:36:12.453Z,6.20
2018-07-25T17:38:41.238Z,6.17
2018-07-25T17:41:10.064Z,6.23
2018-07-25T17:43:38.749Z,5.67
2018-07-25T17:46:07.416Z,5.63
2018-07-25T17:48:37.199Z,5.37
2018-07-25T17:51:05.981Z,5.30
2018-07-25T17:53:34.664Z,6.17
2018-07-25T17:56:03.463Z,5.30
2018-07-25T17:58:32.292Z,5.80
2018-07-25T18:01:00.975Z,6.53
2018-07-25T18:03:29.844Z,5.40
2018-07-25T18:05:58.483Z,6.23
2018-07-25T18:08:27.166Z,5.93
2018-07-25T18:10:55.868Z,6.17
2018-07-25T18:13:29.685Z,6.77
2018-07-25T18:15:58.404Z,5.47
2018-07-25T18:18:27.087Z,7.70
2018-07-25T18:20:55.872Z,6.13
2018-07-25T18:23:24.590Z,6.87
2018-07-25T18:25:53.374Z,8.10
2018-07-25T18:28:22.066Z,7.30
2018-07-25T18:30:50.893Z,7.63
2018-07-25T18:33:19.585Z,6.33
2018-07-25T18:35:48.300Z,7.50
2018-07-25T18:38:17.109Z,8.27
2018-07-25T18:40:45.849Z,6.67
2018-07-25T18:43:14.538Z,7.23
2018-07-25T18:45:43.205Z,7.40
2018-07-25T18:48:11.855Z,6.57
2018-07-25T18:50:40.561Z,8.10
2018-07-25T18:53:09.292Z,5.50
2018-07-25T18:55:38.015Z,8.03
2018-07-25T18:58:06.698Z,6.77
2018-07-25T19:00:35.460Z,7.27
2018-07-25T19:03:04.176Z,5.63
2018-07-25T19:05:32.967Z,8.00
2018-07-25T19:08:02.783Z,6.70
2018-07-25T19:10:31.959Z,7.20
2018-07-25T19:13:00.608Z,5.87
2018-07-25T19:15:30.891Z,5.53
2018-07-25T19:18:00.370Z,5.40
2018-07-25T19:20:32.887Z,5.23
2018-07-25T19:23:01.596Z,6.30
2018-07-25T19:25:30.373Z,6.23
2018-07-25T19:27:59.126Z,5.83
2018-07-25T19:30:27.885Z,6.87
2018-07-25T19:32:57.602Z,6.63
2018-07-25T19:35:26.324Z,7.10
2018-07-25T19:37:55.142Z,6.47
2018-07-25T19:40:23.721Z,7.00
2018-07-25T19:42:52.596Z,6.53
2018-07-25T19:45:21.370Z,6.83
2018-07-25T19:47:50.018Z,6.80
2018-07-25T19:50:19.310Z,6.40
2018-07-25T19:52:48.093Z,7.07
2018-07-25T19:55:16.816Z,6.60
2018-07-25T19:57:45.476Z,7.60
2018-07-25T20:00:16.551Z,5.53
2018-07-25T20:02:42.913Z,6.87
2018-07-25T20:05:11.840Z,6.73
2018-07-25T20:07:40.596Z,5.70
2018-07-25T20:10:09.381Z,5.87
2018-07-25T20:12:38.063Z,5.10
2018-07-25T20:15:12.271Z,6.20
2018-07-25T20:17:40.839Z,5.50
2018-07-25T20:20:10.109Z,6.47
2018-07-25T20:22:38.840Z,5.50
2018-07-25T20:25:07.592Z,7.10
2018-07-25T20:27:36.406Z,6.40
2018-07-25T20:30:06.325Z,5.50
2018-07-25T20:32:35.174Z,6.83
2018-07-25T20:35:04.026Z,7.33
2018-07-25T20:37:32.667Z,6.53
2018-07-25T20:40:01.468Z,5.90
2018-07-25T20:42:30.229Z,6.20
2018-07-25T20:44:58.933Z,6.40
2018-07-25T20:47:27.573Z,5.03
2018-07-25T20:49:56.299Z,5.70
2018-07-25T20:52:24.938Z,7.33
2018-07-25T20:54:53.690Z,5.70
2018-07-25T20:57:22.534Z,7.23
2018-07-25T20:59:51.356Z,7.83
2018-07-25T21:02:20.238Z,5.97
2018-07-25T21:04:48.844Z,8.37
2018-07-25T21:07:18.594Z,7.00
2018-07-25T21:09:47.363Z,6.87
2018-07-25T21:12:16.091Z,6.70
2018-07-25T21:14:44.836Z,7.37
2018-07-25T21:17:13.506Z,6.93
2018-07-25T21:19:42.237Z,7.17
2018-07-25T21:22:10.990Z,7.83
2018-07-25T21:24:39.913Z,6.90
2018-07-25T21:27:08.526Z,7.30
2018-07-25T21:29:37.322Z,6.30
2018-07-25T21:32:06.053Z,7.10
2018-07-25T21:34:34.649Z,7.90
2018-07-25T21:37:03.385Z,6.77
2018-07-25T21:39:32.167Z,7.67
2018-07-25T21:42:00.709Z,7.20
2018-07-25T21:44:29.433Z,7.60
2018-07-25T21:46:58.017Z,7.50
2018-07-25T21:49:26.819Z,9.93
2018-07-25T21:51:55.355Z,8.83
2018-07-25T21:54:23.964Z,8.30
2018-07-25T21:56:52.606Z,8.30
2018-07-25T21:59:21.199Z,7.30
2018-07-25T22:01:49.816Z,7.57
2018-07-25T22:04:18.573Z,7.50
2018-07-25T22:06:47.391Z,7.23
2018-07-25T22:09:16.125Z,7.23
2018-07-25T22:11:44.752Z,8.20
2018-07-25T22:14:13.451Z,8.83
2018-07-25T22:16:42.110Z,7.37
2018-07-25T22:19:10.812Z,7.90
2018-07-25T22:21:39.469Z,8.00
2018-07-25T22:24:08.151Z,7.47
2018-07-25T22:26:36.892Z,6.53
2018-07-25T22:29:06.002Z,8.63
2018-07-25T22:31:35.670Z,7.00
2018-07-25T22:34:04.397Z,7.57
2018-07-25T22:36:33.019Z,8.33
2018-07-25T22:39:01.715Z,8.40
2018-07-25T22:41:30.317Z,7.40
2018-07-25T22:43:59.009Z,7.47
2018-07-25T22:46:27.715Z,7.93
2018-07-25T22:48:56.353Z,8.63
2018-07-25T22:51:24.995Z,7.60
2018-07-25T22:53:53.695Z,9.20
2018-07-25T22:56:22.337Z,7.83
2018-07-25T22:58:51.003Z,7.13
2018-07-25T23:01:19.532Z,8.87
2018-07-25T23:03:48.174Z,7.87
2018-07-25T23:06:16.769Z,6.27
2018-07-25T23:08:45.534Z,8.20
2018-07-25T23:11:14.348Z,8.27
2018-07-25T23:13:46.107Z,9.57
2018-07-25T23:16:16.315Z,8.93
2018-07-25T23:18:45.623Z,7.60
2018-07-25T23:21:14.371Z,6.90
2018-07-25T23:23:43.114Z,7.60
2018-07-25T23:26:11.756Z,9.30
2018-07-25T23:28:40.286Z,7.90
2018-07-25T23:31:08.975Z,6.60
2018-07-25T23:33:37.580Z,7.70
2018-07-25T23:36:06.294Z,8.57
2018-07-25T23:38:34.904Z,8.90
2018-07-25T23:41:03.621Z,7.63
2018-07-25T23:43:32.268Z,7.87
2018-07-25T23:46:00.909Z,7.80
2018-07-25T23:48:29.582Z,8.20
2018-07-25T23:50:58.099Z,8.37
2018-07-25T23:53:26.720Z,8.70
2018-07-25T23:55:55.427Z,9.17
2018-07-25T23:58:24.682Z,8.90
